createdAt,value
2017-11-18T00:00:51.400Z,3.92
2017-11-18T00:01:56.190Z,4.09
2017-11-18T00:03:00.034Z,3.88
2017-11-18T00:04:03.772Z,3.65
2017-11-18T00:05:07.593Z,3.82
2017-11-18T00:06:11.588Z,3.55
2017-11-18T00:07:15.333Z,3.57
2017-11-18T00:08:19.120Z,3.49
2017-11-18T00:09:22.858Z,3.29
2017-11-18T00:10:26.568Z,3.19
2017-11-18T00:11:31.284Z,3.31
2017-11-18T00:12:35.840Z,3.52
2017-11-18T00:13:39.598Z,3.77
2017-11-18T00:14:43.346Z,4.01
2017-11-18T00:15:47.072Z,4.08
2017-11-18T00:16:50.834Z,4.13
2017-11-18T00:17:54.534Z,4.29
2017-11-18T00:18:58.581Z,4.30
2017-11-18T00:20:02.748Z,4.22
2017-11-18T00:21:06.492Z,3.76
2017-11-18T00:22:10.283Z,3.84
2017-11-18T00:23:14.021Z,4.03
2017-11-18T00:24:17.803Z,3.95
2017-11-18T00:25:22.054Z,3.95
2017-11-18T00:26:25.791Z,4.14
2017-11-18T00:27:29.504Z,3.97
2017-11-18T00:28:33.334Z,4.00
2017-11-18T00:29:37.221Z,3.81
2017-11-18T00:30:41.088Z,3.72
2017-11-18T00:31:45.178Z,3.68
2017-11-18T00:32:49.004Z,3.73
2017-11-18T00:33:52.845Z,3.94
2017-11-18T00:34:56.652Z,3.70
2017-11-18T00:36:00.580Z,3.61
2017-11-18T00:37:04.445Z,3.66
2017-11-18T00:38:08.657Z,3.47
2017-11-18T00:39:12.524Z,3.50
2017-11-18T00:40:16.353Z,3.39
2017-11-18T00:41:20.249Z,3.28
2017-11-18T00:42:24.113Z,3.58
2017-11-18T00:43:27.913Z,3.70
2017-11-18T00:44:31.996Z,3.49
2017-11-18T00:45:35.697Z,3.36
2017-11-18T00:46:39.429Z,3.36
2017-11-18T00:47:43.171Z,3.32
2017-11-18T00:48:46.904Z,3.55
2017-11-18T00:49:50.959Z,3.66
2017-11-18T00:50:54.784Z,3.64
2017-11-18T00:51:58.519Z,3.69
2017-11-18T00:53:02.257Z,3.85
2017-11-18T00:54:05.963Z,3.63
2017-11-18T00:55:09.636Z,3.40
2017-11-18T00:56:13.628Z,3.38
2017-11-18T00:57:17.312Z,3.74
2017-11-18T00:58:21.036Z,3.67
2017-11-18T00:59:24.764Z,4.06
2017-11-18T01:00:28.501Z,3.95
2017-11-18T01:01:32.269Z,4.03
2017-11-18T01:02:36.250Z,3.98
2017-11-18T01:03:39.956Z,4.00
2017-11-18T01:04:43.653Z,4.16
2017-11-18T01:05:47.360Z,3.75
2017-11-18T01:06:51.073Z,3.66
2017-11-18T01:07:54.732Z,3.82
2017-11-18T01:08:58.739Z,3.67
2017-11-18T01:10:03.024Z,3.71
2017-11-18T01:11:07.750Z,3.83
2017-11-18T01:12:11.550Z,3.89
2017-11-18T01:13:15.253Z,3.84
2017-11-18T01:14:18.996Z,3.78
2017-11-18T01:15:23.037Z,3.79
2017-11-18T01:16:26.774Z,3.86
2017-11-18T01:17:30.487Z,3.95
2017-11-18T01:18:34.223Z,4.07
2017-11-18T01:19:38.380Z,4.13
2017-11-18T01:20:42.196Z,4.05
2017-11-18T01:21:46.209Z,4.14
2017-11-18T01:22:49.977Z,4.26
2017-11-18T01:23:53.770Z,3.77
2017-11-18T01:24:57.472Z,3.69
2017-11-18T01:26:01.204Z,3.73
2017-11-18T01:27:05.030Z,3.89
2017-11-18T01:28:10.039Z,3.97
2017-11-18T01:29:13.785Z,3.64
2017-11-18T01:30:17.593Z,3.69
2017-11-18T01:31:21.311Z,3.63
2017-11-18T01:32:25.194Z,3.71
2017-11-18T01:33:28.801Z,3.63
2017-11-18T01:34:32.653Z,3.48
2017-11-18T01:35:36.229Z,3.49
2017-11-18T01:36:40.028Z,3.51
2017-11-18T01:37:43.752Z,3.29
2017-11-18T01:38:47.594Z,3.38
2017-11-18T01:39:51.241Z,3.70
2017-11-18T01:40:55.169Z,3.57
2017-11-18T01:41:58.936Z,3.66
2017-11-18T01:43:03.640Z,3.85
2017-11-18T01:44:07.421Z,3.94
2017-11-18T01:45:11.238Z,3.33
2017-11-18T01:46:15.555Z,3.17
2017-11-18T01:47:19.677Z,3.35
2017-11-18T01:48:23.461Z,3.40
2017-11-18T01:49:27.235Z,3.29
2017-11-18T01:50:30.949Z,3.60
2017-11-18T01:51:34.654Z,3.62
2017-11-18T01:52:38.380Z,3.75
2017-11-18T01:53:42.409Z,3.94
2017-11-18T01:54:46.210Z,3.48
2017-11-18T01:55:50.323Z,3.11
2017-11-18T01:56:54.589Z,3.37
2017-11-18T01:57:58.301Z,3.60
2017-11-18T01:59:02.545Z,3.65
2017-11-18T02:00:06.830Z,3.58
2017-11-18T02:16:38.942Z,1.63
2017-11-18T02:17:42.765Z,1.92
2017-11-18T02:18:46.637Z,2.34
2017-11-18T02:19:50.481Z,2.70
2017-11-18T02:20:54.285Z,2.85
2017-11-18T02:21:58.441Z,2.84
2017-11-18T02:23:02.385Z,2.91
2017-11-18T02:24:07.876Z,3.31
2017-11-18T02:25:11.688Z,3.34
2017-11-18T02:26:15.501Z,3.28
2017-11-18T02:27:19.422Z,3.54
2017-11-18T02:28:23.496Z,3.68
2017-11-18T02:29:27.310Z,3.78
2017-11-18T02:30:31.144Z,4.04
2017-11-18T02:31:35.053Z,4.11
2017-11-18T02:32:38.861Z,4.00
2017-11-18T02:33:42.653Z,4.12
2017-11-18T02:34:46.764Z,4.11
2017-11-18T02:35:51.214Z,4.09
2017-11-18T02:36:55.017Z,4.25
2017-11-18T02:37:59.106Z,4.29
2017-11-18T02:39:02.891Z,3.99
2017-11-18T02:40:06.714Z,3.73
2017-11-18T02:41:10.861Z,3.89
2017-11-18T02:42:14.686Z,3.41
2017-11-18T02:43:18.450Z,3.56
2017-11-18T02:44:22.269Z,3.78
2017-11-18T02:45:26.041Z,3.73
2017-11-18T02:46:29.884Z,3.70
2017-11-18T02:47:33.915Z,3.71
2017-11-18T02:48:37.644Z,3.50
2017-11-18T02:49:41.411Z,3.58
2017-11-18T02:50:45.240Z,3.63
2017-11-18T02:51:49.097Z,3.67
2017-11-18T02:52:53.745Z,3.87
2017-11-18T02:53:57.821Z,3.97
2017-11-18T02:55:01.692Z,3.73
2017-11-18T02:56:05.476Z,3.53
2017-11-18T02:57:09.254Z,3.64
2017-11-18T02:58:13.116Z,3.74
2017-11-18T02:59:16.890Z,3.96
2017-11-18T03:00:21.315Z,4.09
2017-11-18T03:01:25.070Z,4.12
2017-11-18T03:02:28.909Z,4.09
2017-11-18T03:03:32.725Z,3.97
2017-11-18T03:04:36.521Z,3.88
2017-11-18T03:05:40.299Z,4.07
2017-11-18T03:06:44.615Z,4.19
2017-11-18T03:07:48.393Z,4.11
2017-11-18T03:08:52.640Z,3.99
2017-11-18T03:09:56.402Z,4.09
2017-11-18T03:11:00.302Z,4.21
2017-11-18T03:12:04.073Z,4.16
2017-11-18T03:13:08.265Z,3.93
2017-11-18T03:14:12.039Z,3.79
2017-11-18T03:15:15.773Z,3.94
2017-11-18T03:16:19.542Z,4.08
2017-11-18T03:17:23.110Z,4.18
2017-11-18T03:18:26.776Z,4.17
2017-11-18T03:19:30.777Z,4.20
2017-11-18T03:20:34.468Z,4.04
2017-11-18T03:21:38.245Z,3.87
2017-11-18T03:22:41.926Z,3.75
2017-11-18T03:23:45.678Z,3.79
2017-11-18T03:24:49.347Z,3.94
2017-11-18T03:25:53.334Z,4.20
2017-11-18T03:26:57.041Z,4.05
2017-11-18T03:28:00.807Z,3.69
2017-11-18T03:29:04.539Z,4.18
2017-11-18T03:30:08.639Z,4.05
2017-11-18T03:31:12.436Z,3.90
2017-11-18T03:32:16.462Z,3.58
2017-11-18T03:33:20.136Z,3.70
2017-11-18T03:34:23.891Z,3.87
2017-11-18T03:35:27.580Z,4.05
2017-11-18T03:36:31.243Z,4.11
2017-11-18T03:37:34.937Z,4.14
2017-11-18T03:38:38.942Z,3.95
2017-11-18T03:39:42.716Z,3.86
2017-11-18T03:40:46.466Z,3.83
2017-11-18T03:41:50.154Z,3.64
2017-11-18T03:42:53.907Z,3.56
2017-11-18T03:43:57.878Z,3.70
2017-11-18T03:45:02.075Z,3.78
2017-11-18T03:46:05.748Z,3.74
2017-11-18T03:47:09.490Z,3.77
2017-11-18T03:48:13.365Z,3.63
2017-11-18T03:49:16.960Z,3.99
2017-11-18T03:50:20.722Z,3.69
2017-11-18T03:51:24.545Z,3.83
2017-11-18T03:52:28.142Z,3.76
2017-11-18T03:53:31.727Z,4.24
2017-11-18T03:54:35.378Z,4.13
2017-11-18T03:55:39.129Z,4.19
2017-11-18T03:56:42.894Z,4.47
2017-11-18T03:57:46.966Z,4.41
2017-11-18T03:58:50.811Z,4.28
2017-11-18T03:59:54.628Z,3.90
2017-11-18T04:00:58.524Z,4.00
2017-11-18T04:02:04.429Z,4.04
2017-11-18T04:03:08.572Z,4.28
2017-11-18T04:04:12.647Z,3.99
2017-11-18T04:05:16.470Z,4.26
2017-11-18T04:06:20.267Z,4.06
2017-11-18T04:07:24.055Z,3.97
2017-11-18T04:08:27.815Z,3.87
2017-11-18T04:09:31.588Z,4.07
2017-11-18T04:10:35.650Z,3.99
2017-11-18T04:11:39.467Z,4.13
2017-11-18T04:12:43.329Z,4.01
2017-11-18T04:13:47.123Z,4.03
2017-11-18T04:14:50.922Z,4.26
2017-11-18T04:15:54.804Z,4.15
2017-11-18T04:16:59.873Z,3.96
2017-11-18T04:18:03.676Z,3.88
2017-11-18T04:19:07.428Z,3.89
2017-11-18T04:20:11.139Z,4.14
2017-11-18T04:21:14.906Z,3.82
2017-11-18T04:22:18.588Z,3.77
2017-11-18T04:23:22.554Z,3.93
2017-11-18T04:24:26.249Z,3.93
2017-11-18T04:25:30.063Z,4.00
2017-11-18T04:26:33.889Z,4.20
2017-11-18T04:27:37.706Z,4.30
2017-11-18T04:28:41.541Z,3.90
2017-11-18T04:29:45.757Z,4.18
2017-11-18T04:30:49.527Z,4.13
2017-11-18T04:31:53.449Z,4.21
2017-11-18T04:32:57.221Z,4.09
2017-11-18T04:34:01.089Z,3.97
2017-11-18T04:35:05.575Z,3.91
2017-11-18T04:36:09.653Z,3.54
2017-11-18T04:37:13.490Z,3.87
2017-11-18T04:38:17.289Z,3.93
2017-11-18T04:39:21.176Z,4.12
2017-11-18T04:40:24.955Z,3.77
2017-11-18T04:41:28.753Z,3.61
2017-11-18T04:42:32.927Z,3.76
2017-11-18T04:43:36.767Z,3.83
2017-11-18T04:44:40.533Z,3.50
2017-11-18T04:45:44.345Z,3.69
2017-11-18T04:46:48.160Z,3.69
2017-11-18T04:47:52.015Z,3.74
2017-11-18T04:48:56.102Z,3.94
2017-11-18T04:49:59.891Z,4.07
2017-11-18T04:51:03.718Z,4.22
2017-11-18T04:52:07.779Z,4.27
2017-11-18T04:53:11.629Z,3.79
2017-11-18T04:54:15.513Z,3.88
2017-11-18T04:55:19.504Z,3.99
2017-11-18T04:56:23.188Z,4.07
2017-11-18T04:57:26.986Z,3.93
2017-11-18T04:58:30.666Z,4.09
2017-11-18T04:59:34.385Z,3.92
2017-11-18T05:15:39.203Z,1.59
2017-11-18T05:16:43.459Z,2.02
2017-11-18T05:17:47.171Z,2.35
2017-11-18T05:18:50.914Z,2.67
2017-11-18T05:19:54.635Z,3.28
2017-11-18T05:20:59.673Z,3.12
2017-11-18T05:22:03.386Z,3.34
2017-11-18T05:23:07.001Z,3.33
2017-11-18T05:24:10.574Z,3.27
2017-11-18T05:25:14.136Z,3.22
2017-11-18T05:26:17.677Z,3.42
2017-11-18T05:27:21.682Z,3.40
2017-11-18T05:28:25.395Z,3.44
2017-11-18T05:29:29.145Z,3.90
2017-11-18T05:30:32.939Z,3.92
2017-11-18T05:31:36.608Z,4.08
2017-11-18T05:32:40.332Z,4.10
2017-11-18T05:33:44.329Z,4.18
2017-11-18T05:34:48.054Z,4.16
2017-11-18T05:35:51.802Z,3.88
2017-11-18T05:36:55.558Z,3.77
2017-11-18T05:37:59.277Z,3.83
2017-11-18T05:39:03.016Z,3.93
2017-11-18T05:40:07.743Z,3.59
2017-11-18T05:41:11.670Z,3.85
2017-11-18T05:42:15.412Z,3.79
2017-11-18T05:43:19.183Z,3.99
2017-11-18T05:44:22.925Z,3.96
2017-11-18T05:45:26.975Z,3.99
2017-11-18T05:46:31.098Z,3.96
2017-11-18T05:47:34.795Z,3.76
2017-11-18T05:48:38.568Z,4.09
2017-11-18T05:49:42.366Z,4.07
2017-11-18T05:50:46.057Z,4.27
2017-11-18T05:51:49.734Z,4.30
2017-11-18T05:52:53.722Z,4.27
2017-11-18T05:53:57.547Z,4.14
2017-11-18T05:55:01.215Z,4.18
2017-11-18T05:56:05.049Z,4.36
2017-11-18T05:57:08.885Z,4.27
2017-11-18T05:58:12.587Z,4.45
2017-11-18T05:59:16.911Z,3.76
2017-11-18T06:00:20.706Z,4.58
2017-11-18T06:01:24.384Z,4.21
2017-11-18T06:02:28.135Z,4.13
2017-11-18T06:03:31.876Z,4.24
2017-11-18T06:04:35.596Z,4.13
2017-11-18T06:05:39.605Z,4.32
2017-11-18T06:06:43.316Z,4.41
2017-11-18T06:07:47.003Z,4.06
2017-11-18T06:08:50.800Z,4.17
2017-11-18T06:09:54.604Z,4.30
2017-11-18T06:10:58.429Z,4.29
2017-11-18T06:12:02.401Z,4.30
2017-11-18T06:13:06.174Z,4.21
2017-11-18T06:14:09.912Z,3.78
2017-11-18T06:15:13.763Z,3.86
2017-11-18T06:16:17.601Z,3.96
2017-11-18T06:17:21.387Z,4.11
2017-11-18T06:18:25.524Z,4.17
2017-11-18T06:19:29.356Z,4.12
2017-11-18T06:20:33.211Z,4.33
2017-11-18T06:21:37.071Z,3.98
2017-11-18T06:22:40.958Z,3.92
2017-11-18T06:23:44.876Z,4.03
2017-11-18T06:24:49.008Z,4.16
2017-11-18T06:25:52.833Z,3.99
2017-11-18T06:26:56.589Z,4.09
2017-11-18T06:28:00.416Z,4.04
2017-11-18T06:29:04.227Z,4.04
2017-11-18T06:30:08.607Z,4.17
2017-11-18T06:31:12.798Z,4.00
2017-11-18T06:32:16.732Z,4.11
2017-11-18T06:33:20.621Z,4.24
2017-11-18T06:34:24.393Z,4.26
2017-11-18T06:35:28.247Z,4.08
2017-11-18T06:36:32.102Z,4.36
2017-11-18T06:37:36.227Z,4.29
2017-11-18T06:38:40.177Z,4.40
2017-11-18T06:39:44.081Z,4.33
2017-11-18T06:40:47.888Z,4.17
2017-11-18T06:41:51.686Z,4.15
2017-11-18T06:42:55.518Z,4.11
2017-11-18T06:43:59.618Z,4.12
2017-11-18T06:45:03.545Z,4.04
2017-11-18T06:46:07.417Z,3.77
2017-11-18T06:47:11.225Z,3.99
2017-11-18T06:48:15.118Z,3.96
2017-11-18T06:49:19.155Z,3.91
2017-11-18T06:50:22.967Z,3.99
2017-11-18T06:51:26.737Z,3.86
2017-11-18T06:52:30.506Z,4.08
2017-11-18T06:53:34.290Z,4.09
2017-11-18T06:54:37.837Z,4.01
2017-11-18T06:55:41.738Z,3.94
2017-11-18T06:56:45.352Z,4.14
2017-11-18T06:57:49.017Z,4.03
2017-11-18T06:58:52.565Z,3.86
2017-11-18T06:59:56.295Z,4.18
2017-11-18T07:00:59.995Z,4.16
2017-11-18T07:02:04.253Z,4.19
2017-11-18T07:03:07.977Z,4.11
2017-11-18T07:04:11.678Z,4.09
2017-11-18T07:05:15.367Z,4.06
2017-11-18T07:07:38.387Z,3.99
2017-11-18T07:08:42.149Z,3.94
2017-11-18T07:09:45.970Z,3.80
2017-11-18T07:10:49.871Z,3.80
2017-11-18T07:11:53.608Z,3.64
2017-11-18T07:12:57.460Z,3.43
2017-11-18T07:14:01.594Z,3.41
2017-11-18T07:15:05.386Z,3.33
2017-11-18T07:16:09.184Z,3.21
2017-11-18T07:17:13.074Z,3.08
2017-11-18T07:18:17.153Z,2.20
2017-11-18T07:19:21.047Z,2.98
2017-11-18T07:20:25.341Z,2.84
2017-11-18T07:21:29.127Z,2.84
2017-11-18T07:22:32.893Z,3.12
2017-11-18T07:23:36.679Z,3.31
2017-11-18T07:24:40.768Z,2.90
2017-11-18T07:25:44.769Z,3.40
2017-11-18T07:26:49.075Z,3.54
2017-11-18T07:27:52.913Z,3.57
2017-11-18T07:28:56.881Z,2.68
2017-11-18T07:30:00.825Z,3.58
2017-11-18T07:31:05.906Z,3.26
2017-11-18T07:32:10.019Z,3.62
2017-11-18T07:33:14.557Z,3.66
2017-11-18T07:34:22.754Z,3.74
2017-11-18T07:35:26.815Z,3.48
2017-11-18T07:36:30.613Z,3.54
2017-11-18T07:37:34.500Z,3.43
2017-11-18T07:38:38.457Z,2.77
2017-11-18T07:39:42.686Z,3.50
2017-11-18T07:40:46.511Z,3.24
2017-11-18T07:41:50.388Z,3.89
2017-11-18T07:42:54.190Z,3.59
2017-11-18T07:43:58.010Z,3.37
2017-11-18T07:45:01.832Z,4.03
2017-11-18T07:46:06.006Z,4.01
2017-11-18T07:47:09.959Z,4.09
2017-11-18T07:48:13.737Z,4.17
2017-11-18T07:49:17.609Z,4.26
2017-11-18T07:50:21.564Z,4.39
2017-11-18T07:51:26.083Z,4.49
2017-11-18T07:52:30.378Z,4.47
2017-11-18T07:53:34.148Z,4.22
2017-11-18T07:54:37.945Z,4.10
2017-11-18T07:55:41.941Z,3.13
2017-11-18T07:56:46.375Z,4.31
2017-11-18T07:57:50.287Z,4.21
2017-11-18T07:58:54.539Z,3.83
2017-11-18T07:59:58.334Z,3.64
2017-11-18T08:01:02.664Z,4.18
2017-11-18T08:02:07.459Z,4.18
2017-11-18T08:03:11.480Z,3.68
2017-11-18T08:04:15.807Z,3.93
2017-11-18T08:05:20.240Z,4.04
2017-11-18T08:06:24.611Z,4.24
2017-11-18T08:07:28.497Z,4.28
2017-11-18T08:08:32.366Z,4.24
2017-11-18T08:09:37.729Z,4.03
2017-11-18T08:10:41.440Z,4.20
2017-11-18T08:11:46.312Z,4.05
2017-11-18T08:12:50.057Z,3.98
2017-11-18T08:13:53.878Z,3.93
2017-11-18T08:15:44.284Z,4.26
2017-11-18T08:16:48.088Z,4.29
2017-11-18T08:17:51.857Z,4.18
2017-11-18T08:18:55.637Z,3.34
2017-11-18T08:19:59.425Z,3.23
2017-11-18T08:21:03.276Z,3.54
2017-11-18T08:22:07.048Z,3.44
2017-11-18T08:23:11.187Z,3.65
2017-11-18T08:24:15.050Z,3.34
2017-11-18T08:25:18.917Z,3.34
2017-11-18T08:26:22.720Z,2.89
2017-11-18T08:27:26.513Z,3.52
2017-11-18T08:28:30.404Z,3.34
2017-11-18T08:29:35.506Z,3.34
2017-11-18T08:30:39.368Z,3.22
2017-11-18T08:31:43.051Z,2.83
2017-11-18T08:32:46.960Z,2.83
2017-11-18T08:33:50.868Z,2.89
2017-11-18T08:34:54.695Z,2.72
2017-11-18T08:36:03.061Z,2.98
2017-11-18T08:37:06.884Z,2.96
2017-11-18T08:38:10.691Z,2.60
2017-11-18T08:39:14.533Z,3.06
2017-11-18T08:40:18.321Z,3.17
2017-11-18T08:41:22.901Z,3.16
2017-11-18T08:42:27.196Z,3.00
2017-11-18T08:43:31.042Z,2.58
2017-11-18T08:44:34.858Z,2.59
2017-11-18T08:45:39.042Z,2.90
2017-11-18T08:46:43.831Z,3.23
2017-11-18T08:47:47.723Z,2.90
2017-11-18T08:48:51.918Z,2.18
2017-11-18T08:49:55.746Z,2.87
2017-11-18T08:50:59.516Z,2.06
2017-11-18T08:52:03.334Z,2.85
2017-11-18T08:53:07.184Z,2.46
2017-11-18T08:54:10.994Z,2.49
2017-11-18T08:55:15.121Z,2.77
2017-11-18T08:56:18.937Z,2.76
2017-11-18T08:57:22.835Z,2.84
2017-11-18T08:58:26.729Z,2.68
2017-11-18T08:59:30.543Z,3.22
2017-11-18T09:00:34.418Z,3.15
2017-11-18T09:01:38.674Z,3.52
2017-11-18T09:02:42.455Z,3.33
2017-11-18T09:03:46.282Z,2.64
2017-11-18T09:04:50.103Z,3.05
2017-11-18T09:05:53.945Z,2.53
2017-11-18T09:06:57.829Z,3.42
2017-11-18T09:08:02.119Z,3.63
2017-11-18T09:09:06.119Z,3.42
2017-11-18T09:10:09.943Z,3.41
2017-11-18T09:11:13.907Z,3.61
2017-11-18T09:12:17.804Z,3.30
2017-11-18T09:13:21.605Z,3.60
2017-11-18T09:14:25.937Z,3.81
2017-11-18T09:15:29.746Z,3.96
2017-11-18T09:16:34.156Z,4.05
2017-11-18T09:17:37.969Z,4.12
2017-11-18T09:18:41.825Z,4.13
2017-11-18T09:19:45.679Z,3.99
2017-11-18T09:20:50.165Z,3.97
2017-11-18T09:21:53.947Z,3.34
2017-11-18T09:22:57.800Z,3.80
2017-11-18T09:24:01.612Z,3.72
2017-11-18T09:25:05.425Z,3.86
2017-11-18T09:26:09.365Z,3.72
2017-11-18T09:27:13.662Z,3.20
2017-11-18T09:28:17.520Z,3.20
2017-11-18T09:29:21.339Z,3.38
2017-11-18T09:30:25.150Z,3.33
2017-11-18T09:31:29.001Z,3.24
2017-11-18T09:32:32.826Z,3.42
2017-11-18T09:33:37.018Z,3.08
2017-11-18T09:34:40.926Z,3.67
2017-11-18T09:35:44.829Z,3.67
2017-11-18T09:36:48.627Z,3.60
2017-11-18T09:37:52.441Z,3.65
2017-11-18T09:38:56.303Z,3.80
2017-11-18T09:40:00.376Z,3.35
2017-11-18T09:41:04.083Z,3.45
2017-11-18T09:42:07.832Z,3.54
2017-11-18T09:43:11.559Z,3.55
2017-11-18T09:44:15.309Z,3.73
2017-11-18T09:45:19.129Z,3.66
2017-11-18T09:46:23.017Z,3.37
2017-11-18T09:47:26.964Z,3.27
2017-11-18T09:48:30.861Z,3.71
2017-11-18T09:49:34.835Z,3.65
2017-11-18T09:50:39.000Z,3.97
2017-11-18T09:51:42.917Z,3.75
2017-11-18T09:52:46.748Z,3.95
2017-11-18T09:53:50.576Z,3.55
2017-11-18T09:54:54.440Z,3.50
2017-11-18T09:55:58.301Z,3.23
2017-11-18T09:57:03.688Z,3.48
2017-11-18T09:58:07.595Z,3.50
2017-11-18T09:59:11.435Z,3.78
2017-11-18T10:00:15.244Z,3.51
2017-11-18T10:01:19.063Z,3.90
2017-11-18T10:02:22.868Z,4.06
2017-11-18T10:03:28.029Z,4.02
2017-11-18T10:04:31.821Z,3.99
2017-11-18T10:05:36.987Z,4.30
2017-11-18T10:06:41.321Z,4.24
2017-11-18T10:07:45.330Z,3.78
2017-11-18T10:08:50.474Z,4.08
2017-11-18T10:09:54.620Z,4.19
2017-11-18T10:10:58.810Z,4.32
2017-11-18T10:12:14.019Z,4.23
2017-11-18T10:13:18.315Z,3.86
2017-11-18T10:14:23.656Z,3.94
2017-11-18T10:15:27.970Z,3.59
2017-11-18T10:16:32.553Z,3.68
2017-11-18T10:17:36.725Z,3.90
2017-11-18T10:18:40.971Z,3.92
2017-11-18T10:19:44.958Z,3.65
2017-11-18T10:20:49.247Z,3.79
2017-11-18T10:21:53.401Z,3.87
2017-11-18T10:22:58.007Z,3.84
2017-11-18T10:24:02.038Z,4.01
2017-11-18T10:25:06.223Z,3.77
2017-11-18T10:26:10.319Z,3.45
2017-11-18T10:27:14.392Z,3.84
2017-11-18T10:28:18.726Z,3.57
2017-11-18T10:29:23.126Z,3.81
2017-11-18T10:30:27.264Z,3.86
2017-11-18T10:31:32.288Z,3.87
2017-11-18T10:32:36.479Z,3.90
2017-11-18T10:33:40.651Z,4.20
2017-11-18T10:34:44.653Z,3.74
2017-11-18T10:35:49.037Z,3.88
2017-11-18T10:36:53.179Z,4.02
2017-11-18T10:37:57.166Z,3.75
2017-11-18T10:39:01.327Z,4.09
2017-11-18T10:40:05.399Z,4.24
2017-11-18T10:41:09.744Z,4.34
2017-11-18T10:42:14.486Z,4.48
2017-11-18T10:43:18.511Z,4.62
2017-11-18T10:44:22.526Z,4.86
2017-11-18T10:45:26.608Z,4.17
2017-11-18T10:46:30.824Z,4.12
2017-11-18T10:47:34.926Z,4.13
2017-11-18T10:48:39.280Z,4.28
2017-11-18T10:49:43.604Z,4.48
2017-11-18T10:50:47.654Z,4.48
2017-11-18T10:51:51.606Z,4.67
2017-11-18T10:52:55.839Z,4.43
2017-11-18T10:53:59.909Z,4.06
2017-11-18T10:55:04.295Z,4.17
2017-11-18T10:56:08.331Z,4.20
2017-11-18T10:57:12.331Z,4.36
2017-11-18T10:58:16.345Z,4.66
2017-11-18T11:15:17.596Z,3.51
2017-11-18T11:16:22.240Z,4.01
2017-11-18T11:17:26.450Z,4.19
2017-11-18T11:18:30.864Z,4.44
2017-11-18T11:19:35.229Z,4.41
2017-11-18T11:20:39.751Z,4.61
2017-11-18T11:21:44.047Z,4.70
2017-11-18T11:22:48.284Z,4.44
2017-11-18T11:23:52.466Z,4.49
2017-11-18T11:24:56.830Z,4.56
2017-11-18T11:26:01.241Z,4.59
2017-11-18T11:27:06.084Z,4.75
2017-11-18T11:28:10.174Z,3.90
2017-11-18T11:29:14.469Z,4.22
2017-11-18T11:30:18.696Z,4.04
2017-11-18T11:31:23.009Z,4.26
2017-11-18T11:32:27.210Z,4.46
2017-11-18T11:33:31.960Z,4.70
2017-11-18T11:34:36.081Z,4.80
2017-11-18T11:35:40.243Z,4.77
2017-11-18T11:36:44.569Z,4.62
2017-11-18T11:37:48.668Z,4.63
2017-11-18T11:38:53.903Z,4.82
2017-11-18T11:39:58.350Z,5.05
2017-11-18T11:41:02.844Z,4.54
2017-11-18T11:42:07.102Z,4.25
2017-11-18T11:43:11.810Z,4.31
2017-11-18T11:44:16.170Z,4.20
2017-11-18T11:45:20.491Z,4.33
2017-11-18T11:46:25.079Z,4.01
2017-11-18T11:47:29.549Z,3.86
2017-11-18T11:48:33.868Z,4.21
2017-11-18T11:49:38.221Z,4.56
2017-11-18T11:50:42.439Z,4.25
2017-11-18T11:51:46.641Z,4.24
2017-11-18T11:52:51.141Z,4.28
2017-11-18T11:53:55.304Z,4.35
2017-11-18T11:54:59.549Z,4.39
2017-11-18T11:56:03.740Z,4.09
2017-11-18T11:57:07.689Z,4.27
2017-11-18T11:58:11.650Z,4.58
2017-11-18T11:59:16.144Z,4.65
2017-11-18T12:00:20.365Z,4.77
2017-11-18T12:01:24.427Z,4.50
2017-11-18T12:02:28.608Z,4.58
2017-11-18T12:03:32.703Z,4.55
2017-11-18T12:04:36.862Z,4.69
2017-11-18T12:05:41.356Z,4.90
2017-11-18T12:06:45.609Z,4.74
2017-11-18T12:07:50.170Z,4.76
2017-11-18T12:08:54.544Z,4.45
2017-11-18T12:09:59.329Z,4.21
2017-11-18T12:11:03.451Z,4.37
2017-11-18T12:12:08.089Z,4.06
2017-11-18T12:13:12.221Z,4.37
2017-11-18T12:14:16.443Z,4.25
2017-11-18T12:15:20.477Z,3.59
2017-11-18T12:16:24.591Z,3.86
2017-11-18T12:17:29.070Z,4.03
2017-11-18T12:18:33.680Z,4.24
2017-11-18T12:19:38.071Z,4.15
2017-11-18T12:20:42.278Z,4.08
2017-11-18T12:21:46.739Z,4.13
2017-11-18T12:22:51.040Z,4.26
2017-11-18T12:23:55.160Z,4.09
2017-11-18T12:24:59.878Z,4.07
2017-11-18T12:26:04.190Z,3.76
2017-11-18T12:27:08.386Z,3.89
2017-11-18T12:28:12.550Z,3.50
2017-11-18T12:29:16.666Z,4.23
2017-11-18T12:30:20.875Z,4.34
2017-11-18T12:31:25.464Z,3.82
2017-11-18T12:32:31.138Z,3.55
2017-11-18T12:33:36.147Z,3.64
2017-11-18T12:34:41.466Z,4.04
2017-11-18T12:35:52.683Z,4.14
2017-11-18T12:37:05.787Z,3.90
2017-11-18T12:38:16.057Z,3.59
2017-11-18T12:39:22.360Z,3.97
2017-11-18T12:40:26.396Z,3.89
2017-11-18T12:41:31.172Z,3.93
2017-11-18T12:42:35.897Z,4.05
2017-11-18T12:43:40.611Z,3.79
2017-11-18T12:44:49.023Z,3.84
2017-11-18T12:45:53.254Z,3.74
2017-11-18T12:46:57.377Z,3.75
2017-11-18T12:48:01.538Z,4.40
2017-11-18T12:49:06.198Z,4.38
2017-11-18T12:50:10.368Z,3.69
2017-11-18T12:51:14.573Z,4.23
2017-11-18T12:52:18.697Z,4.34
2017-11-18T12:53:22.873Z,4.07
2017-11-18T12:54:26.940Z,4.90
2017-11-18T12:55:31.976Z,5.00
2017-11-18T12:56:36.115Z,5.05
2017-11-18T12:57:40.205Z,5.05
2017-11-18T12:58:44.240Z,4.70
2017-11-18T12:59:48.424Z,4.77
2017-11-18T13:00:52.601Z,4.79
2017-11-18T13:01:57.149Z,4.70
2017-11-18T13:03:01.216Z,4.71
2017-11-18T13:04:05.350Z,4.78
2017-11-18T13:05:09.443Z,4.77
2017-11-18T13:06:13.516Z,4.86
2017-11-18T13:07:17.668Z,4.89
2017-11-18T13:08:22.076Z,5.02
2017-11-18T13:09:26.314Z,4.92
2017-11-18T13:10:30.433Z,4.78
2017-11-18T13:11:34.467Z,4.91
2017-11-18T13:12:39.366Z,4.37
2017-11-18T13:13:43.503Z,4.97
2017-11-18T13:14:47.903Z,5.14
2017-11-18T13:15:51.981Z,5.58
2017-11-18T13:16:56.182Z,5.25
2017-11-18T13:18:00.312Z,5.28
2017-11-18T13:19:04.498Z,5.14
2017-11-18T13:20:09.209Z,5.13
2017-11-18T13:21:13.689Z,5.22
2017-11-18T13:22:17.908Z,5.35
2017-11-18T13:23:22.116Z,4.62
2017-11-18T13:24:26.317Z,4.77
2017-11-18T13:25:30.360Z,5.10
2017-11-18T13:26:34.576Z,5.00
2017-11-18T13:27:39.187Z,4.88
2017-11-18T13:28:43.365Z,5.51
2017-11-18T13:29:47.426Z,4.97
2017-11-18T13:30:51.562Z,5.60
2017-11-18T13:31:55.660Z,5.23
2017-11-18T13:32:59.721Z,5.23
2017-11-18T13:34:04.121Z,5.34
2017-11-18T13:35:08.497Z,5.61
2017-11-18T13:36:12.588Z,5.75
2017-11-18T13:37:16.641Z,5.88
2017-11-18T13:38:20.709Z,5.87
2017-11-18T13:39:24.996Z,5.91
2017-11-18T13:40:29.446Z,5.97
2017-11-18T13:41:33.499Z,5.53
2017-11-18T13:42:37.631Z,5.54
2017-11-18T13:43:41.744Z,5.14
2017-11-18T13:44:45.867Z,5.16
2017-11-18T13:45:49.829Z,5.14
2017-11-18T13:46:54.049Z,5.47
2017-11-18T13:47:58.139Z,5.33
2017-11-18T13:49:02.316Z,4.80
2017-11-18T13:50:06.553Z,4.95
2017-11-18T13:51:10.690Z,4.99
2017-11-18T13:52:14.750Z,4.96
2017-11-18T13:53:19.268Z,5.08
2017-11-18T13:54:23.712Z,5.26
2017-11-18T13:55:27.845Z,5.41
2017-11-18T13:56:31.994Z,4.89
2017-11-18T13:57:36.625Z,5.72
2017-11-18T13:58:40.873Z,5.64
2017-11-18T13:59:45.497Z,4.99
2017-11-18T14:00:49.656Z,5.01
2017-11-18T14:01:53.882Z,5.59
2017-11-18T14:02:59.035Z,5.02
2017-11-18T14:04:03.274Z,5.69
2017-11-18T14:05:07.387Z,5.79
2017-11-18T14:06:12.825Z,5.27
2017-11-18T14:07:16.902Z,5.57
2017-11-18T14:08:21.032Z,5.55
2017-11-18T14:09:25.252Z,5.36
2017-11-18T14:10:29.361Z,5.17
2017-11-18T14:11:33.527Z,5.41
2017-11-18T14:12:38.008Z,4.66
2017-11-18T14:13:42.976Z,5.27
2017-11-18T14:14:47.189Z,5.42
2017-11-18T14:15:51.535Z,5.63
2017-11-18T14:16:55.651Z,5.65
2017-11-18T14:17:59.835Z,5.36
2017-11-18T14:19:04.552Z,5.50
2017-11-18T14:20:08.712Z,5.41
2017-11-18T14:21:12.795Z,5.32
2017-11-18T14:22:16.549Z,4.96
2017-11-18T14:23:20.366Z,4.81
2017-11-18T14:24:24.095Z,4.92
2017-11-18T14:25:28.221Z,5.34
2017-11-18T14:26:32.218Z,5.54
2017-11-18T14:27:36.069Z,5.77
2017-11-18T14:28:39.941Z,5.60
2017-11-18T14:29:43.802Z,5.25
2017-11-18T14:30:47.707Z,5.76
2017-11-18T14:31:51.818Z,5.66
2017-11-18T14:32:55.722Z,5.22
2017-11-18T14:33:59.846Z,5.33
2017-11-18T14:35:03.814Z,5.28
2017-11-18T14:36:07.987Z,5.24
2017-11-18T14:37:12.021Z,5.43
2017-11-18T14:38:16.357Z,5.48
2017-11-18T14:39:20.275Z,5.14
2017-11-18T14:40:24.220Z,5.49
2017-11-18T14:41:28.192Z,5.41
2017-11-18T14:42:32.110Z,5.58
2017-11-18T14:43:35.988Z,5.37
2017-11-18T14:44:41.760Z,5.34
2017-11-18T14:45:45.672Z,5.56
2017-11-18T14:46:49.616Z,5.27
2017-11-18T14:47:53.581Z,5.50
2017-11-18T14:48:57.588Z,5.17
2017-11-18T14:50:01.448Z,5.32
2017-11-18T14:51:05.647Z,5.02
2017-11-18T14:52:09.630Z,5.25
2017-11-18T14:53:13.461Z,5.35
2017-11-18T14:54:17.208Z,5.68
2017-11-18T14:55:21.148Z,5.48
2017-11-18T14:56:25.092Z,5.57
2017-11-18T14:57:29.313Z,5.41
2017-11-18T14:58:33.240Z,5.51
2017-11-18T14:59:37.198Z,5.11
2017-11-18T15:00:41.097Z,5.33
2017-11-18T15:01:45.073Z,5.00